createdAt,value
2023-04-23T00:00:00.364Z,55
2023-04-23T00:04:00.455Z,55
2023-04-23T00:08:00.353Z,55
2023-04-23T00:12:00.351Z,56
2023-04-23T00:16:00.441Z,56
2023-04-23T00:20:00.363Z,56
2023-04-23T00:24:00.378Z,56
2023-04-23T00:28:00.368Z,56
2023-04-23T00:32:00.387Z,56
2023-04-23T00:36:00.331Z,56
2023-04-23T00:40:00.345Z,56
2023-04-23T00:44:00.368Z,56
2023-04-23T00:48:00.485Z,56
2023-04-23T00:52:00.361Z,56
2023-04-23T00:56:00.364Z,56
2023-04-23T01:00:00.372Z,56
2023-04-23T01:04:00.455Z,56
2023-04-23T01:08:00.403Z,56
2023-04-23T01:12:00.390Z,56
2023-04-23T01:16:00.355Z,56
2023-04-23T01:20:00.361Z,56
2023-04-23T01:24:00.347Z,56
2023-04-23T01:28:00.377Z,56
2023-04-23T01:32:00.349Z,56
2023-04-23T01:36:00.354Z,56
2023-04-23T01:40:00.383Z,56
2023-04-23T01:44:00.370Z,58
2023-04-23T01:48:00.387Z,58
2023-04-23T01:52:00.360Z,58
2023-04-23T01:56:00.367Z,58
2023-04-23T02:00:00.361Z,58
2023-04-23T02:04:00.426Z,58
2023-04-23T02:08:00.361Z,58
2023-04-23T02:12:00.395Z,58
2023-04-23T02:16:00.371Z,58
2023-04-23T02:20:00.357Z,58
2023-04-23T02:24:00.365Z,58
2023-04-23T02:28:00.334Z,58
2023-04-23T02:32:00.413Z,58
2023-04-23T02:36:00.323Z,58
2023-04-23T02:40:00.376Z,58
2023-04-23T02:44:00.338Z,58
2023-04-23T02:48:00.389Z,58
2023-04-23T02:52:00.347Z,58
2023-04-23T02:56:00.338Z,58
2023-04-23T03:00:00.377Z,58
2023-04-23T03:04:00.417Z,58
2023-04-23T03:08:00.339Z,62
2023-04-23T03:12:00.337Z,64
2023-04-23T03:16:00.345Z,65
2023-04-23T03:20:00.354Z,67
2023-04-23T03:24:00.327Z,66
2023-04-23T03:28:00.355Z,68
2023-04-23T03:32:00.334Z,68
2023-04-23T03:36:00.380Z,73
2023-04-23T03:40:00.349Z,72
2023-04-23T03:44:00.343Z,72
2023-04-23T03:48:00.354Z,72
2023-04-23T03:52:00.382Z,73
2023-04-23T03:56:00.367Z,73
2023-04-23T04:00:00.359Z,73
2023-04-23T04:04:00.572Z,74
2023-04-23T04:08:00.336Z,74
2023-04-23T04:12:00.358Z,74
2023-04-23T04:16:00.399Z,75
2023-04-23T04:20:00.373Z,75
2023-04-23T04:24:00.344Z,75
2023-04-23T04:28:00.387Z,75
2023-04-23T04:32:00.367Z,76
2023-04-23T04:36:00.362Z,76
2023-04-23T04:40:00.332Z,76
2023-04-23T04:44:00.372Z,76
2023-04-23T04:48:00.349Z,76
2023-04-23T04:52:00.371Z,77
2023-04-23T04:56:00.402Z,77
2023-04-23T05:00:00.358Z,77
2023-04-23T05:04:00.614Z,77
2023-04-23T05:08:00.349Z,77
2023-04-23T05:12:00.370Z,77
2023-04-23T05:16:00.385Z,77
2023-04-23T05:20:00.329Z,77
2023-04-23T05:24:00.374Z,77
2023-04-23T05:28:00.337Z,77
2023-04-23T05:32:00.389Z,77
2023-04-23T05:36:00.349Z,77
2023-04-23T05:40:00.361Z,77
2023-04-23T05:44:00.316Z,77
2023-04-23T05:48:00.381Z,77
2023-04-23T05:52:00.330Z,77
2023-04-23T05:56:00.362Z,76
2023-04-23T06:00:00.333Z,76
2023-04-23T06:04:00.488Z,75
2023-04-23T06:08:00.372Z,75
2023-04-23T06:12:00.345Z,75
2023-04-23T06:16:00.375Z,75
2023-04-23T06:20:00.345Z,75
2023-04-23T06:24:00.387Z,75
2023-04-23T06:28:00.393Z,75
2023-04-23T06:32:00.360Z,75
2023-04-23T06:36:00.314Z,75
2023-04-23T06:40:00.327Z,75
2023-04-23T06:44:00.337Z,75
2023-04-23T06:48:00.381Z,75
2023-04-23T06:52:00.338Z,75
2023-04-23T06:56:00.334Z,75
2023-04-23T07:00:00.395Z,75
2023-04-23T07:04:00.396Z,75
2023-04-23T07:08:00.351Z,75
2023-04-23T07:12:00.346Z,75
2023-04-23T07:16:00.340Z,75
2023-04-23T07:20:00.342Z,75
2023-04-23T07:24:00.329Z,75
2023-04-23T07:28:00.379Z,75
2023-04-23T07:32:00.372Z,75
2023-04-23T07:36:00.348Z,75
2023-04-23T07:40:00.363Z,75
2023-04-23T07:44:00.388Z,75
2023-04-23T07:48:00.456Z,75
2023-04-23T07:52:00.373Z,75
2023-04-23T07:56:00.358Z,75
2023-04-23T08:00:00.374Z,75
2023-04-23T08:04:00.803Z,75
2023-04-23T08:08:00.377Z,75
2023-04-23T08:12:00.365Z,75
2023-04-23T08:16:00.389Z,75
2023-04-23T08:20:00.353Z,75
2023-04-23T08:24:00.424Z,76
2023-04-23T08:28:00.343Z,76
2023-04-23T08:32:00.371Z,76
2023-04-23T08:36:00.345Z,76
2023-04-23T08:40:00.348Z,76
2023-04-23T08:44:00.361Z,76
2023-04-23T08:48:02.168Z,76
2023-04-23T08:52:00.336Z,76
2023-04-23T08:56:00.352Z,76
2023-04-23T09:00:00.359Z,76
2023-04-23T09:04:00.381Z,76
2023-04-23T09:08:00.358Z,76
2023-04-23T09:12:00.363Z,74
2023-04-23T09:16:00.368Z,74
2023-04-23T09:20:00.404Z,73
2023-04-23T09:24:00.419Z,73
2023-04-23T09:28:00.362Z,73
2023-04-23T09:32:00.460Z,67
2023-04-23T09:36:00.417Z,67
2023-04-23T09:40:00.409Z,67
2023-04-23T09:44:00.433Z,67
2023-04-23T09:48:00.525Z,67
2023-04-23T09:52:00.419Z,67
2023-04-23T09:56:00.425Z,67
2023-04-23T10:00:13.617Z,67
2023-04-23T10:04:00.645Z,67
2023-04-23T10:08:00.397Z,67
2023-04-23T10:12:00.450Z,67
2023-04-23T10:16:10.141Z,67
2023-04-23T10:20:00.458Z,67
2023-04-23T10:24:00.383Z,67
2023-04-23T10:28:00.378Z,67
2023-04-23T10:32:00.408Z,67
2023-04-23T10:36:00.368Z,67
2023-04-23T10:40:00.355Z,67
2023-04-23T10:44:00.395Z,67
2023-04-23T10:48:00.505Z,67
2023-04-23T10:52:18.523Z,67
2023-04-23T10:56:00.338Z,67
2023-04-23T11:00:00.341Z,67
2023-04-23T11:04:00.487Z,67
2023-04-23T11:08:11.046Z,67
2023-04-23T11:12:00.356Z,67
2023-04-23T11:16:00.387Z,67
2023-04-23T11:20:00.374Z,67
2023-04-23T11:24:00.355Z,67
2023-04-23T11:28:00.363Z,67
2023-04-23T11:32:02.967Z,67
2023-04-23T11:36:00.347Z,67
2023-04-23T11:40:00.345Z,67
2023-04-23T11:44:00.340Z,67
2023-04-23T11:48:00.469Z,67
2023-04-23T11:52:00.362Z,67
2023-04-23T11:56:00.359Z,67
2023-04-23T12:00:00.338Z,67
2023-04-23T12:04:00.575Z,67
2023-04-23T12:08:00.362Z,67
2023-04-23T12:12:00.340Z,67
2023-04-23T12:16:00.385Z,67
2023-04-23T12:20:00.346Z,67
2023-04-23T12:24:00.345Z,67
2023-04-23T12:28:00.334Z,67
2023-04-23T12:32:00.372Z,67
2023-04-23T12:36:00.359Z,67
2023-04-23T12:40:00.350Z,67
2023-04-23T12:44:00.361Z,67
2023-04-23T12:48:00.351Z,67
2023-04-23T12:52:00.371Z,67
2023-04-23T12:56:00.339Z,67
2023-04-23T13:00:00.361Z,67
2023-04-23T13:04:00.401Z,67
2023-04-23T13:08:00.359Z,67
2023-04-23T13:12:00.991Z,67
2023-04-23T13:16:00.370Z,67
2023-04-23T13:20:00.363Z,67
2023-04-23T13:24:00.355Z,67
2023-04-23T13:28:00.338Z,67
2023-04-23T13:32:00.412Z,67
2023-04-23T13:36:00.368Z,67
2023-04-23T13:40:00.350Z,67
2023-04-23T13:44:00.372Z,67
2023-04-23T13:48:00.408Z,67
2023-04-23T13:52:00.374Z,67
2023-04-23T13:56:00.360Z,41
2023-04-23T14:00:00.351Z,39
2023-04-23T14:04:00.362Z,39
2023-04-23T14:08:00.357Z,39
2023-04-23T14:12:00.350Z,39
2023-04-23T14:16:03.429Z,41
2023-04-23T14:20:00.315Z,40
2023-04-23T14:24:00.340Z,40
2023-04-23T14:28:00.337Z,40
2023-04-23T14:32:00.374Z,42
2023-04-23T14:36:00.390Z,43
2023-04-23T14:40:00.353Z,42
2023-04-23T14:44:00.372Z,44
2023-04-23T14:48:00.361Z,43
2023-04-23T14:52:00.368Z,44
2023-04-23T14:56:00.356Z,43
2023-04-23T15:00:00.337Z,43
2023-04-23T15:04:00.445Z,43
2023-04-23T15:08:00.353Z,43
2023-04-23T15:12:00.347Z,43
2023-04-23T15:16:00.362Z,43
2023-04-23T15:20:00.369Z,44
2023-04-23T15:24:00.331Z,43
2023-04-23T15:28:00.336Z,42
2023-04-23T15:32:00.367Z,43
2023-04-23T15:36:00.395Z,42
2023-04-23T15:40:00.343Z,42
2023-04-23T15:44:00.369Z,43
2023-04-23T15:48:00.375Z,43
2023-04-23T15:52:00.370Z,45
2023-04-23T15:56:00.335Z,45
2023-04-23T16:00:00.505Z,46
2023-04-23T16:08:00.342Z,46
2023-04-23T16:12:00.321Z,46
2023-04-23T16:16:00.328Z,47
2023-04-23T16:20:00.351Z,47
2023-04-23T16:24:00.332Z,47
2023-04-23T16:28:00.348Z,48
2023-04-23T16:32:00.343Z,48
2023-04-23T16:36:00.336Z,48
2023-04-23T16:40:00.366Z,49
2023-04-23T16:44:00.346Z,49
2023-04-23T16:48:00.355Z,49
2023-04-23T16:52:00.358Z,49
2023-04-23T16:56:00.335Z,51
2023-04-23T17:00:00.363Z,53
2023-04-23T17:04:00.436Z,54
2023-04-23T17:08:00.372Z,55
2023-04-23T17:12:00.341Z,55
2023-04-23T17:16:00.409Z,56
2023-04-23T17:20:00.355Z,57
2023-04-23T17:24:00.352Z,58
2023-04-23T17:28:00.340Z,58
2023-04-23T17:32:01.258Z,59
2023-04-23T17:36:00.364Z,59
2023-04-23T17:40:00.356Z,60
2023-04-23T17:44:00.375Z,60
2023-04-23T17:48:00.407Z,61
2023-04-23T17:52:00.362Z,61
2023-04-23T17:56:00.400Z,62
2023-04-23T18:00:00.346Z,62
2023-04-23T18:04:00.626Z,63
2023-04-23T18:08:00.333Z,63
2023-04-23T18:12:00.342Z,66
2023-04-23T18:16:00.364Z,66
2023-04-23T18:20:00.318Z,66
2023-04-23T18:24:00.334Z,66
2023-04-23T18:28:00.335Z,66
2023-04-23T18:32:00.353Z,66
2023-04-23T18:36:00.344Z,67
2023-04-23T18:40:00.334Z,67
2023-04-23T18:44:00.605Z,67
2023-04-23T18:48:00.446Z,68
2023-04-23T18:52:00.337Z,68
2023-04-23T18:56:00.351Z,68
2023-04-23T19:00:00.320Z,69
2023-04-23T19:04:00.376Z,70
2023-04-23T19:08:00.336Z,70
2023-04-23T19:12:00.341Z,71
2023-04-23T19:16:00.399Z,72
2023-04-23T19:20:00.356Z,72
2023-04-23T19:24:00.332Z,71
2023-04-23T19:28:00.339Z,72
2023-04-23T19:32:00.317Z,72
2023-04-23T19:36:00.347Z,73
2023-04-23T19:40:00.334Z,73
2023-04-23T19:44:00.366Z,73
2023-04-23T19:48:00.435Z,75
2023-04-23T19:52:00.344Z,74
2023-04-23T19:56:00.333Z,74
2023-04-23T20:00:00.349Z,74
2023-04-23T20:04:00.375Z,74
2023-04-23T20:08:00.335Z,74
2023-04-23T20:12:00.339Z,75
2023-04-23T20:16:00.340Z,75
2023-04-23T20:20:00.348Z,75
2023-04-23T20:24:00.319Z,75
2023-04-23T20:28:00.352Z,76
2023-04-23T20:32:00.399Z,77
2023-04-23T20:36:00.347Z,76
2023-04-23T20:40:00.362Z,77
2023-04-23T20:44:00.336Z,78
2023-04-23T20:48:00.411Z,78
2023-04-23T20:52:00.331Z,78
2023-04-23T20:56:00.321Z,78
2023-04-23T21:00:00.331Z,78
2023-04-23T21:04:00.659Z,78
2023-04-23T21:08:00.335Z,78
2023-04-23T21:12:00.347Z,78
2023-04-23T21:16:00.378Z,78
2023-04-23T21:20:00.333Z,78
2023-04-23T21:24:00.333Z,78
2023-04-23T21:28:00.331Z,78
2023-04-23T21:32:00.338Z,78
2023-04-23T21:36:00.330Z,78
2023-04-23T21:40:00.348Z,79
2023-04-23T21:44:00.315Z,79
2023-04-23T21:48:00.364Z,79
2023-04-23T21:52:00.336Z,79
2023-04-23T21:56:00.332Z,79
2023-04-23T22:00:00.326Z,79
2023-04-23T22:04:00.474Z,79
2023-04-23T22:08:00.328Z,79
2023-04-23T22:12:01.947Z,79
2023-04-23T22:16:00.398Z,80
2023-04-23T22:20:00.345Z,80
2023-04-23T22:24:00.337Z,80
2023-04-23T22:28:00.342Z,80
2023-04-23T22:32:00.391Z,80
2023-04-23T22:36:00.318Z,80
2023-04-23T22:40:00.362Z,80
2023-04-23T22:44:00.321Z,80
2023-04-23T22:48:00.414Z,81
2023-04-23T22:52:00.337Z,81
2023-04-23T22:56:00.375Z,81
2023-04-23T23:00:00.344Z,81
2023-04-23T23:04:00.386Z,81
2023-04-23T23:08:00.337Z,81
2023-04-23T23:12:00.328Z,81
2023-04-23T23:16:00.595Z,81
2023-04-23T23:20:00.333Z,81
2023-04-23T23:24:00.346Z,81
2023-04-23T23:28:00.355Z,82
2023-04-23T23:32:00.345Z,82
2023-04-23T23:36:00.338Z,82
2023-04-23T23:40:00.379Z,82
2023-04-23T23:44:00.340Z,82
2023-04-23T23:48:00.399Z,82
2023-04-23T23:52:00.323Z,82
2023-04-23T23:56:00.351Z,82
